sensor_id;sensor_type;location;lat;lon;timestamp;temperature;humidity
18173;DHT22;9211;48.818;9.312;2023-04-03T00:00:09;6.40;99.90
18173;DHT22;9211;48.818;9.312;2023-04-03T00:02:36;6.30;99.90
18173;DHT22;9211;48.818;9.312;2023-04-03T00:05:04;6.30;99.90
18173;DHT22;9211;48.818;9.312;2023-04-03T00:07:31;6.30;99.90
18173;DHT22;9211;48.818;9.312;2023-04-03T00:09:58;6.30;99.90
18173;DHT22;9211;48.818;9.312;2023-04-03T00:12:25;6.30;99.90
18173;DHT22;9211;48.818;9.312;2023-04-03T00:14:53;6.30;99.90
18173;DHT22;9211;48.818;9.312;2023-04-03T00:17:20;6.30;99.90
18173;DHT22;9211;48.818;9.312;2023-04-03T00:19:47;6.20;99.90
18173;DHT22;9211;48.818;9.312;2023-04-03T00:22:14;6.20;99.90
18173;DHT22;9211;48.818;9.312;2023-04-03T00:24:41;6.20;99.90
18173;DHT22;9211;48.818;9.312;2023-04-03T00:27:08;6.20;99.90
18173;DHT22;9211;48.818;9.312;2023-04-03T00:29:35;6.20;99.90
18173;DHT22;9211;48.818;9.312;2023-04-03T00:32:03;6.20;99.90
18173;DHT22;9211;48.818;9.312;2023-04-03T00:34:31;6.20;99.90
18173;DHT22;9211;48.818;9.312;2023-04-03T00:36:58;6.20;99.90
18173;DHT22;9211;48.818;9.312;2023-04-03T00:39:25;6.20;99.90
18173;DHT22;9211;48.818;9.312;2023-04-03T00:41:52;6.20;99.90
18173;DHT22;9211;48.818;9.312;2023-04-03T00:44:20;6.10;99.90
18173;DHT22;9211;48.818;9.312;2023-04-03T00:46:48;6.10;99.90
18173;DHT22;9211;48.818;9.312;2023-04-03T00:49:16;6.10;99.90
18173;DHT22;9211;48.818;9.312;2023-04-03T00:51:43;6.00;99.90
18173;DHT22;9211;48.818;9.312;2023-04-03T00:54:10;6.00;99.90
18173;DHT22;9211;48.818;9.312;2023-04-03T00:56:38;5.90;99.90
18173;DHT22;9211;48.818;9.312;2023-04-03T00:59:09;5.90;99.90
18173;DHT22;9211;48.818;9.312;2023-04-03T01:01:37;5.90;99.90
18173;DHT22;9211;48.818;9.312;2023-04-03T01:04:05;5.90;99.90
18173;DHT22;9211;48.818;9.312;2023-04-03T01:06:36;5.80;99.90
18173;DHT22;9211;48.818;9.312;2023-04-03T01:09:07;5.80;99.90
18173;DHT22;9211;48.818;9.312;2023-04-03T01:11:34;5.80;99.90
18173;DHT22;9211;48.818;9.312;2023-04-03T01:14:02;5.80;99.90
18173;DHT22;9211;48.818;9.312;2023-04-03T01:16:29;5.70;99.90
18173;DHT22;9211;48.818;9.312;2023-04-03T01:18:59;5.70;99.90
18173;DHT22;9211;48.818;9.312;2023-04-03T01:21:52;5.60;99.90
18173;DHT22;9211;48.818;9.312;2023-04-03T01:24:32;5.60;99.90
18173;DHT22;9211;48.818;9.312;2023-04-03T01:27:03;5.60;99.90
18173;DHT22;9211;48.818;9.312;2023-04-03T01:29:31;5.60;99.90
18173;DHT22;9211;48.818;9.312;2023-04-03T01:32:00;5.60;99.90
18173;DHT22;9211;48.818;9.312;2023-04-03T01:34:28;5.50;99.90
18173;DHT22;9211;48.818;9.312;2023-04-03T01:36:55;5.50;99.90
18173;DHT22;9211;48.818;9.312;2023-04-03T01:39:22;5.50;99.90
18173;DHT22;9211;48.818;9.312;2023-04-03T01:41:50;5.50;99.90
18173;DHT22;9211;48.818;9.312;2023-04-03T01:44:34;5.50;99.90
18173;DHT22;9211;48.818;9.312;2023-04-03T01:47:02;5.40;99.90
18173;DHT22;9211;48.818;9.312;2023-04-03T01:49:32;5.40;99.90
18173;DHT22;9211;48.818;9.312;2023-04-03T01:51:59;5.40;99.90
18173;DHT22;9211;48.818;9.312;2023-04-03T01:54:26;5.40;99.90
18173;DHT22;9211;48.818;9.312;2023-04-03T01:56:53;5.30;99.90
18173;DHT22;9211;48.818;9.312;2023-04-03T01:59:20;5.40;99.90
18173;DHT22;9211;48.818;9.312;2023-04-03T02:01:47;5.30;99.90
18173;DHT22;9211;48.818;9.312;2023-04-03T02:04:16;5.30;99.90
18173;DHT22;9211;48.818;9.312;2023-04-03T02:06:43;5.30;99.90
18173;DHT22;9211;48.818;9.312;2023-04-03T02:09:12;5.30;99.90
18173;DHT22;9211;48.818;9.312;2023-04-03T02:11:39;5.30;99.90
18173;DHT22;9211;48.818;9.312;2023-04-03T02:14:07;5.30;99.90
18173;DHT22;9211;48.818;9.312;2023-04-03T02:16:34;5.20;99.90
18173;DHT22;9211;48.818;9.312;2023-04-03T02:19:01;5.20;99.90
18173;DHT22;9211;48.818;9.312;2023-04-03T02:21:30;5.00;99.90
18173;DHT22;9211;48.818;9.312;2023-04-03T02:23:57;5.10;99.90
18173;DHT22;9211;48.818;9.312;2023-04-03T02:26:24;5.10;99.90
18173;DHT22;9211;48.818;9.312;2023-04-03T02:28:52;5.20;99.90
18173;DHT22;9211;48.818;9.312;2023-04-03T02:31:19;5.20;99.90
18173;DHT22;9211;48.818;9.312;2023-04-03T02:33:46;5.20;99.90
18173;DHT22;9211;48.818;9.312;2023-04-03T02:36:15;5.20;99.90
18173;DHT22;9211;48.818;9.312;2023-04-03T02:38:48;5.20;99.90
18173;DHT22;9211;48.818;9.312;2023-04-03T02:41:15;5.20;99.90
18173;DHT22;9211;48.818;9.312;2023-04-03T02:43:42;5.20;99.90
18173;DHT22;9211;48.818;9.312;2023-04-03T02:46:09;5.30;99.90
18173;DHT22;9211;48.818;9.312;2023-04-03T02:48:36;5.30;99.90
18173;DHT22;9211;48.818;9.312;2023-04-03T02:51:04;5.20;99.90
18173;DHT22;9211;48.818;9.312;2023-04-03T02:53:31;5.20;99.90
18173;DHT22;9211;48.818;9.312;2023-04-03T02:56:05;5.10;99.90
18173;DHT22;9211;48.818;9.312;2023-04-03T02:58:32;5.10;99.90
18173;DHT22;9211;48.818;9.312;2023-04-03T03:01:00;5.10;99.90
18173;DHT22;9211;48.818;9.312;2023-04-03T03:03:27;5.20;99.90
18173;DHT22;9211;48.818;9.312;2023-04-03T03:06:02;5.30;99.90
18173;DHT22;9211;48.818;9.312;2023-04-03T03:08:29;5.30;99.90
18173;DHT22;9211;48.818;9.312;2023-04-03T03:10:56;5.30;99.90
18173;DHT22;9211;48.818;9.312;2023-04-03T03:13:24;5.40;99.90
18173;DHT22;9211;48.818;9.312;2023-04-03T03:15:51;5.50;99.90
18173;DHT22;9211;48.818;9.312;2023-04-03T03:18:18;5.50;99.90
18173;DHT22;9211;48.818;9.312;2023-04-03T03:20:45;5.50;99.90
18173;DHT22;9211;48.818;9.312;2023-04-03T03:23:13;5.50;99.90
18173;DHT22;9211;48.818;9.312;2023-04-03T03:25:40;5.40;99.90
18173;DHT22;9211;48.818;9.312;2023-04-03T03:28:07;5.40;99.90
18173;DHT22;9211;48.818;9.312;2023-04-03T03:30:36;5.50;99.90
18173;DHT22;9211;48.818;9.312;2023-04-03T03:33:03;5.60;99.90
18173;DHT22;9211;48.818;9.312;2023-04-03T03:35:30;5.60;99.90
18173;DHT22;9211;48.818;9.312;2023-04-03T03:37:57;5.60;99.90
18173;DHT22;9211;48.818;9.312;2023-04-03T03:40:24;5.60;99.90
18173;DHT22;9211;48.818;9.312;2023-04-03T03:42:52;5.60;99.90
18173;DHT22;9211;48.818;9.312;2023-04-03T03:45:19;5.70;99.90
18173;DHT22;9211;48.818;9.312;2023-04-03T03:47:47;5.70;99.90
18173;DHT22;9211;48.818;9.312;2023-04-03T03:50:15;5.70;99.90
18173;DHT22;9211;48.818;9.312;2023-04-03T03:52:42;5.60;99.90
18173;DHT22;9211;48.818;9.312;2023-04-03T03:55:11;5.60;99.90
18173;DHT22;9211;48.818;9.312;2023-04-03T03:57:38;5.70;99.90
18173;DHT22;9211;48.818;9.312;2023-04-03T04:00:06;5.70;99.90
18173;DHT22;9211;48.818;9.312;2023-04-03T04:02:41;5.70;99.90
18173;DHT22;9211;48.818;9.312;2023-04-03T04:05:14;5.70;99.90
18173;DHT22;9211;48.818;9.312;2023-04-03T04:07:41;5.70;99.90
18173;DHT22;9211;48.818;9.312;2023-04-03T04:10:08;5.70;99.90
18173;DHT22;9211;48.818;9.312;2023-04-03T04:12:36;5.80;99.90
18173;DHT22;9211;48.818;9.312;2023-04-03T04:15:04;5.70;99.90
18173;DHT22;9211;48.818;9.312;2023-04-03T04:17:31;5.70;99.90
18173;DHT22;9211;48.818;9.312;2023-04-03T04:19:59;5.80;99.90
18173;DHT22;9211;48.818;9.312;2023-04-03T04:22:27;5.80;99.90
18173;DHT22;9211;48.818;9.312;2023-04-03T04:24:54;5.80;99.90
18173;DHT22;9211;48.818;9.312;2023-04-03T04:27:21;5.80;99.90
18173;DHT22;9211;48.818;9.312;2023-04-03T04:29:48;5.90;99.90
18173;DHT22;9211;48.818;9.312;2023-04-03T04:32:16;5.80;99.90
18173;DHT22;9211;48.818;9.312;2023-04-03T04:34:44;5.80;99.90
18173;DHT22;9211;48.818;9.312;2023-04-03T04:37:11;5.80;99.90
18173;DHT22;9211;48.818;9.312;2023-04-03T04:39:40;5.80;99.90
18173;DHT22;9211;48.818;9.312;2023-04-03T04:42:08;5.70;99.90
18173;DHT22;9211;48.818;9.312;2023-04-03T04:44:39;5.70;99.90
18173;DHT22;9211;48.818;9.312;2023-04-03T04:47:07;5.70;99.90
18173;DHT22;9211;48.818;9.312;2023-04-03T04:49:34;5.70;99.90
18173;DHT22;9211;48.818;9.312;2023-04-03T04:52:02;5.70;99.90
18173;DHT22;9211;48.818;9.312;2023-04-03T04:54:31;5.70;99.90
18173;DHT22;9211;48.818;9.312;2023-04-03T04:56:59;5.70;99.90
18173;DHT22;9211;48.818;9.312;2023-04-03T04:59:28;5.70;99.90
18173;DHT22;9211;48.818;9.312;2023-04-03T05:01:57;5.70;99.90
18173;DHT22;9211;48.818;9.312;2023-04-03T05:04:26;5.60;99.90
18173;DHT22;9211;48.818;9.312;2023-04-03T05:06:59;5.70;99.90
18173;DHT22;9211;48.818;9.312;2023-04-03T05:09:28;5.70;99.90
18173;DHT22;9211;48.818;9.312;2023-04-03T05:11:55;5.70;99.90
18173;DHT22;9211;48.818;9.312;2023-04-03T05:14:27;5.70;99.90
18173;DHT22;9211;48.818;9.312;2023-04-03T05:16:59;5.60;99.90
18173;DHT22;9211;48.818;9.312;2023-04-03T05:19:29;5.70;99.90
18173;DHT22;9211;48.818;9.312;2023-04-03T05:21:57;5.70;99.90
18173;DHT22;9211;48.818;9.312;2023-04-03T05:24:24;5.60;99.90
18173;DHT22;9211;48.818;9.312;2023-04-03T05:26:52;5.60;99.90
18173;DHT22;9211;48.818;9.312;2023-04-03T05:29:19;5.60;99.90
18173;DHT22;9211;48.818;9.312;2023-04-03T05:31:49;5.60;99.90
18173;DHT22;9211;48.818;9.312;2023-04-03T05:34:16;5.50;99.90
18173;DHT22;9211;48.818;9.312;2023-04-03T05:36:46;5.50;99.90
18173;DHT22;9211;48.818;9.312;2023-04-03T05:39:15;5.50;99.90
18173;DHT22;9211;48.818;9.312;2023-04-03T05:41:43;5.50;99.90
18173;DHT22;9211;48.818;9.312;2023-04-03T05:44:11;5.50;99.90
18173;DHT22;9211;48.818;9.312;2023-04-03T05:46:39;5.50;99.90
18173;DHT22;9211;48.818;9.312;2023-04-03T05:49:10;5.50;99.90
18173;DHT22;9211;48.818;9.312;2023-04-03T05:51:38;5.50;99.90
18173;DHT22;9211;48.818;9.312;2023-04-03T05:54:19;5.60;99.90
18173;DHT22;9211;48.818;9.312;2023-04-03T05:56:49;5.60;99.90
18173;DHT22;9211;48.818;9.312;2023-04-03T05:59:16;5.50;99.90
18173;DHT22;9211;48.818;9.312;2023-04-03T06:01:44;5.60;99.90
18173;DHT22;9211;48.818;9.312;2023-04-03T06:04:13;5.60;99.90
18173;DHT22;9211;48.818;9.312;2023-04-03T06:06:45;5.70;99.90
18173;DHT22;9211;48.818;9.312;2023-04-03T06:09:13;5.70;99.90
18173;DHT22;9211;48.818;9.312;2023-04-03T06:11:41;5.70;99.90
18173;DHT22;9211;48.818;9.312;2023-04-03T06:14:09;5.70;99.90
18173;DHT22;9211;48.818;9.312;2023-04-03T06:16:36;5.80;99.90
18173;DHT22;9211;48.818;9.312;2023-04-03T06:19:06;5.80;99.90
18173;DHT22;9211;48.818;9.312;2023-04-03T06:21:35;5.90;99.90
18173;DHT22;9211;48.818;9.312;2023-04-03T06:24:02;5.90;99.90
18173;DHT22;9211;48.818;9.312;2023-04-03T06:26:29;5.90;99.90
18173;DHT22;9211;48.818;9.312;2023-04-03T06:28:56;5.80;99.90
18173;DHT22;9211;48.818;9.312;2023-04-03T06:31:23;6.00;99.90
18173;DHT22;9211;48.818;9.312;2023-04-03T06:33:50;6.00;99.90
18173;DHT22;9211;48.818;9.312;2023-04-03T06:36:18;6.00;99.90
18173;DHT22;9211;48.818;9.312;2023-04-03T06:38:48;6.00;99.90
18173;DHT22;9211;48.818;9.312;2023-04-03T06:41:16;6.10;99.90
18173;DHT22;9211;48.818;9.312;2023-04-03T06:43:43;6.10;99.90
18173;DHT22;9211;48.818;9.312;2023-04-03T06:46:14;6.10;99.90
18173;DHT22;9211;48.818;9.312;2023-04-03T06:48:42;6.10;99.90
18173;DHT22;9211;48.818;9.312;2023-04-03T06:51:17;6.00;99.90
18173;DHT22;9211;48.818;9.312;2023-04-03T06:53:45;6.10;99.90
18173;DHT22;9211;48.818;9.312;2023-04-03T06:56:14;6.20;99.90
18173;DHT22;9211;48.818;9.312;2023-04-03T06:58:42;6.20;99.90
18173;DHT22;9211;48.818;9.312;2023-04-03T07:01:10;6.20;99.90
18173;DHT22;9211;48.818;9.312;2023-04-03T07:03:38;6.30;99.90
18173;DHT22;9211;48.818;9.312;2023-04-03T07:06:07;6.40;99.90
18173;DHT22;9211;48.818;9.312;2023-04-03T07:08:34;6.30;99.90
18173;DHT22;9211;48.818;9.312;2023-04-03T07:11:01;6.40;99.90
18173;DHT22;9211;48.818;9.312;2023-04-03T07:13:30;6.40;99.90
18173;DHT22;9211;48.818;9.312;2023-04-03T07:15:57;6.40;99.90
18173;DHT22;9211;48.818;9.312;2023-04-03T07:18:24;6.40;99.90
18173;DHT22;9211;48.818;9.312;2023-04-03T07:20:51;6.50;99.90
18173;DHT22;9211;48.818;9.312;2023-04-03T07:23:18;6.50;99.90
18173;DHT22;9211;48.818;9.312;2023-04-03T07:25:47;6.60;99.90
18173;DHT22;9211;48.818;9.312;2023-04-03T07:28:15;6.60;99.90
18173;DHT22;9211;48.818;9.312;2023-04-03T07:30:44;6.70;99.90
18173;DHT22;9211;48.818;9.312;2023-04-03T07:33:13;6.70;99.90
18173;DHT22;9211;48.818;9.312;2023-04-03T07:35:40;6.70;99.90
18173;DHT22;9211;48.818;9.312;2023-04-03T07:38:07;6.70;99.90
18173;DHT22;9211;48.818;9.312;2023-04-03T07:40:35;6.80;99.90
18173;DHT22;9211;48.818;9.312;2023-04-03T07:43:02;6.80;99.90
18173;DHT22;9211;48.818;9.312;2023-04-03T07:45:30;6.80;99.90
18173;DHT22;9211;48.818;9.312;2023-04-03T07:47:58;6.70;99.90
18173;DHT22;9211;48.818;9.312;2023-04-03T07:50:25;6.80;99.90
18173;DHT22;9211;48.818;9.312;2023-04-03T07:52:53;6.80;99.90
18173;DHT22;9211;48.818;9.312;2023-04-03T07:55:20;6.90;99.90
18173;DHT22;9211;48.818;9.312;2023-04-03T07:57:47;6.90;99.90
18173;DHT22;9211;48.818;9.312;2023-04-03T08:00:14;6.90;99.90
18173;DHT22;9211;48.818;9.312;2023-04-03T08:02:43;7.00;99.90
18173;DHT22;9211;48.818;9.312;2023-04-03T08:05:17;7.10;99.90
18173;DHT22;9211;48.818;9.312;2023-04-03T08:07:44;7.10;99.90
18173;DHT22;9211;48.818;9.312;2023-04-03T08:10:12;7.20;99.90
18173;DHT22;9211;48.818;9.312;2023-04-03T08:12:39;7.30;99.90
18173;DHT22;9211;48.818;9.312;2023-04-03T08:15:07;7.40;99.90
18173;DHT22;9211;48.818;9.312;2023-04-03T08:17:35;7.40;99.90
18173;DHT22;9211;48.818;9.312;2023-04-03T08:20:03;7.40;99.90
18173;DHT22;9211;48.818;9.312;2023-04-03T08:22:32;7.50;99.90
18173;DHT22;9211;48.818;9.312;2023-04-03T08:24:59;7.50;99.90
18173;DHT22;9211;48.818;9.312;2023-04-03T08:27:27;7.60;99.90
18173;DHT22;9211;48.818;9.312;2023-04-03T08:29:54;7.70;99.90
18173;DHT22;9211;48.818;9.312;2023-04-03T08:32:22;7.70;99.90
18173;DHT22;9211;48.818;9.312;2023-04-03T08:34:49;7.80;99.90
18173;DHT22;9211;48.818;9.312;2023-04-03T08:37:16;7.80;99.90
18173;DHT22;9211;48.818;9.312;2023-04-03T08:39:46;7.90;99.90
18173;DHT22;9211;48.818;9.312;2023-04-03T08:42:17;7.80;99.90
18173;DHT22;9211;48.818;9.312;2023-04-03T08:44:50;8.00;99.90
18173;DHT22;9211;48.818;9.312;2023-04-03T08:47:24;8.00;99.90
18173;DHT22;9211;48.818;9.312;2023-04-03T08:49:54;8.00;99.90
18173;DHT22;9211;48.818;9.312;2023-04-03T08:52:31;8.10;99.90
18173;DHT22;9211;48.818;9.312;2023-04-03T08:55:03;8.10;99.90
18173;DHT22;9211;48.818;9.312;2023-04-03T08:57:35;8.20;99.90
18173;DHT22;9211;48.818;9.312;2023-04-03T09:00:06;8.10;99.90
18173;DHT22;9211;48.818;9.312;2023-04-03T09:02:40;8.10;99.90
18173;DHT22;9211;48.818;9.312;2023-04-03T09:05:13;8.10;99.90
18173;DHT22;9211;48.818;9.312;2023-04-03T09:07:43;8.20;99.90
18173;DHT22;9211;48.818;9.312;2023-04-03T09:10:14;8.30;99.90
18173;DHT22;9211;48.818;9.312;2023-04-03T09:12:42;8.30;99.90
18173;DHT22;9211;48.818;9.312;2023-04-03T09:15:18;8.30;99.90
18173;DHT22;9211;48.818;9.312;2023-04-03T09:17:58;8.30;99.90
18173;DHT22;9211;48.818;9.312;2023-04-03T09:20:33;8.40;99.90
18173;DHT22;9211;48.818;9.312;2023-04-03T09:23:13;8.30;99.90
18173;DHT22;9211;48.818;9.312;2023-04-03T09:25:43;8.40;99.90
18173;DHT22;9211;48.818;9.312;2023-04-03T09:28:10;8.40;99.90
18173;DHT22;9211;48.818;9.312;2023-04-03T09:30:38;8.50;99.90
18173;DHT22;9211;48.818;9.312;2023-04-03T09:33:05;8.50;99.90
18173;DHT22;9211;48.818;9.312;2023-04-03T09:35:34;8.60;99.90
18173;DHT22;9211;48.818;9.312;2023-04-03T09:38:15;8.70;99.90
18173;DHT22;9211;48.818;9.312;2023-04-03T09:40:45;8.80;99.90
18173;DHT22;9211;48.818;9.312;2023-04-03T09:43:25;8.80;99.90
18173;DHT22;9211;48.818;9.312;2023-04-03T09:45:53;8.80;99.90
18173;DHT22;9211;48.818;9.312;2023-04-03T09:48:22;8.80;99.90
18173;DHT22;9211;48.818;9.312;2023-04-03T09:50:55;8.80;99.90
18173;DHT22;9211;48.818;9.312;2023-04-03T09:53:30;8.80;99.90
18173;DHT22;9211;48.818;9.312;2023-04-03T09:55:59;8.90;99.90
18173;DHT22;9211;48.818;9.312;2023-04-03T09:58:30;8.90;99.90
18173;DHT22;9211;48.818;9.312;2023-04-03T10:01:01;8.90;99.90
18173;DHT22;9211;48.818;9.312;2023-04-03T10:03:30;8.80;99.90
18173;DHT22;9211;48.818;9.312;2023-04-03T10:05:58;8.80;99.90
18173;DHT22;9211;48.818;9.312;2023-04-03T10:08:28;8.80;99.90
18173;DHT22;9211;48.818;9.312;2023-04-03T10:11:12;8.80;99.90
18173;DHT22;9211;48.818;9.312;2023-04-03T10:13:57;8.80;99.90
18173;DHT22;9211;48.818;9.312;2023-04-03T10:16:33;8.90;99.90
18173;DHT22;9211;48.818;9.312;2023-04-03T10:21:57;8.80;99.90
18173;DHT22;9211;48.818;9.312;2023-04-03T10:24:34;8.70;99.90
18173;DHT22;9211;48.818;9.312;2023-04-03T10:27:07;8.70;99.90
18173;DHT22;9211;48.818;9.312;2023-04-03T10:29:43;8.70;99.90
18173;DHT22;9211;48.818;9.312;2023-04-03T10:32:27;8.60;99.90
18173;DHT22;9211;48.818;9.312;2023-04-03T10:35:03;8.60;99.90
18173;DHT22;9211;48.818;9.312;2023-04-03T10:37:40;8.60;99.90
18173;DHT22;9211;48.818;9.312;2023-04-03T10:40:18;8.60;99.90
18173;DHT22;9211;48.818;9.312;2023-04-03T10:42:52;8.50;99.90
18173;DHT22;9211;48.818;9.312;2023-04-03T10:45:26;8.60;99.90
18173;DHT22;9211;48.818;9.312;2023-04-03T10:48:00;8.70;99.90
18173;DHT22;9211;48.818;9.312;2023-04-03T10:50:38;8.70;99.90
18173;DHT22;9211;48.818;9.312;2023-04-03T10:53:14;8.80;99.90
18173;DHT22;9211;48.818;9.312;2023-04-03T10:55:48;8.80;99.90
18173;DHT22;9211;48.818;9.312;2023-04-03T10:58:23;8.80;99.90
18173;DHT22;9211;48.818;9.312;2023-04-03T11:00:53;8.80;99.90
18173;DHT22;9211;48.818;9.312;2023-04-03T11:03:29;8.80;99.90
18173;DHT22;9211;48.818;9.312;2023-04-03T11:05:59;8.80;99.90
18173;DHT22;9211;48.818;9.312;2023-04-03T11:08:33;8.70;99.90
18173;DHT22;9211;48.818;9.312;2023-04-03T11:11:04;8.70;99.90
18173;DHT22;9211;48.818;9.312;2023-04-03T11:13:37;8.80;99.90
18173;DHT22;9211;48.818;9.312;2023-04-03T11:16:06;8.80;99.90
18173;DHT22;9211;48.818;9.312;2023-04-03T11:18:39;8.90;99.90
18173;DHT22;9211;48.818;9.312;2023-04-03T11:21:11;8.90;99.90
18173;DHT22;9211;48.818;9.312;2023-04-03T11:23:40;9.00;99.90
18173;DHT22;9211;48.818;9.312;2023-04-03T11:26:10;9.00;99.90
18173;DHT22;9211;48.818;9.312;2023-04-03T11:28:39;9.10;99.90
18173;DHT22;9211;48.818;9.312;2023-04-03T11:31:18;9.00;99.90
18173;DHT22;9211;48.818;9.312;2023-04-03T11:33:58;9.20;99.90
18173;DHT22;9211;48.818;9.312;2023-04-03T11:36:30;9.20;99.90
18173;DHT22;9211;48.818;9.312;2023-04-03T11:38:59;9.10;99.90
18173;DHT22;9211;48.818;9.312;2023-04-03T11:41:29;9.00;99.90
18173;DHT22;9211;48.818;9.312;2023-04-03T11:44:00;9.10;99.90
18173;DHT22;9211;48.818;9.312;2023-04-03T11:46:51;9.10;99.90
18173;DHT22;9211;48.818;9.312;2023-04-03T11:49:50;9.10;99.90
18173;DHT22;9211;48.818;9.312;2023-04-03T11:58:27;9.10;99.90
18173;DHT22;9211;48.818;9.312;2023-04-03T12:01:05;9.00;99.90
18173;DHT22;9211;48.818;9.312;2023-04-03T12:07:00;9.00;99.90
18173;DHT22;9211;48.818;9.312;2023-04-03T12:09:33;9.10;99.90
18173;DHT22;9211;48.818;9.312;2023-04-03T12:14:47;9.30;99.90
18173;DHT22;9211;48.818;9.312;2023-04-03T12:17:22;9.50;99.90
18173;DHT22;9211;48.818;9.312;2023-04-03T12:19:50;9.60;99.90
18173;DHT22;9211;48.818;9.312;2023-04-03T12:22:18;9.60;99.90
18173;DHT22;9211;48.818;9.312;2023-04-03T12:24:48;9.50;99.90
18173;DHT22;9211;48.818;9.312;2023-04-03T12:27:25;9.60;99.90
18173;DHT22;9211;48.818;9.312;2023-04-03T12:30:00;9.50;99.90
18173;DHT22;9211;48.818;9.312;2023-04-03T12:35:34;9.50;99.90
18173;DHT22;9211;48.818;9.312;2023-04-03T12:41:16;9.40;99.90
18173;DHT22;9211;48.818;9.312;2023-04-03T12:43:54;9.40;99.90
18173;DHT22;9211;48.818;9.312;2023-04-03T12:46:32;9.30;99.90
18173;DHT22;9211;48.818;9.312;2023-04-03T12:49:14;9.30;99.90
18173;DHT22;9211;48.818;9.312;2023-04-03T12:51:47;9.40;99.90
18173;DHT22;9211;48.818;9.312;2023-04-03T12:54:18;9.50;99.90
18173;DHT22;9211;48.818;9.312;2023-04-03T12:56:46;9.60;99.90
18173;DHT22;9211;48.818;9.312;2023-04-03T12:59:15;9.60;99.90
18173;DHT22;9211;48.818;9.312;2023-04-03T13:01:43;9.70;99.90
18173;DHT22;9211;48.818;9.312;2023-04-03T13:04:11;9.60;99.90
18173;DHT22;9211;48.818;9.312;2023-04-03T13:06:41;9.60;99.90
18173;DHT22;9211;48.818;9.312;2023-04-03T13:09:20;9.60;99.90
18173;DHT22;9211;48.818;9.312;2023-04-03T13:11:49;9.70;99.90
18173;DHT22;9211;48.818;9.312;2023-04-03T13:14:19;9.70;99.90
18173;DHT22;9211;48.818;9.312;2023-04-03T13:16:54;9.70;99.90
18173;DHT22;9211;48.818;9.312;2023-04-03T13:19:23;9.70;99.90
18173;DHT22;9211;48.818;9.312;2023-04-03T13:21:54;9.60;99.90
18173;DHT22;9211;48.818;9.312;2023-04-03T13:24:25;9.50;99.90
18173;DHT22;9211;48.818;9.312;2023-04-03T13:26:52;9.50;99.90
18173;DHT22;9211;48.818;9.312;2023-04-03T13:29:24;9.70;99.90
18173;DHT22;9211;48.818;9.312;2023-04-03T13:31:53;9.90;99.90
18173;DHT22;9211;48.818;9.312;2023-04-03T13:34:22;10.00;99.90
18173;DHT22;9211;48.818;9.312;2023-04-03T13:36:59;10.10;99.90
18173;DHT22;9211;48.818;9.312;2023-04-03T13:39:30;10.20;99.90
18173;DHT22;9211;48.818;9.312;2023-04-03T13:41:59;10.20;99.90
18173;DHT22;9211;48.818;9.312;2023-04-03T13:44:33;10.10;99.90
18173;DHT22;9211;48.818;9.312;2023-04-03T13:47:16;9.90;99.90
18173;DHT22;9211;48.818;9.312;2023-04-03T13:49:44;9.90;99.90
18173;DHT22;9211;48.818;9.312;2023-04-03T13:52:27;9.90;99.90
18173;DHT22;9211;48.818;9.312;2023-04-03T13:54:58;9.90;99.90
18173;DHT22;9211;48.818;9.312;2023-04-03T13:57:26;9.90;99.90
18173;DHT22;9211;48.818;9.312;2023-04-03T13:59:54;9.80;99.90
18173;DHT22;9211;48.818;9.312;2023-04-03T14:02:28;9.70;99.90
18173;DHT22;9211;48.818;9.312;2023-04-03T14:04:58;9.60;99.90
18173;DHT22;9211;48.818;9.312;2023-04-03T14:07:28;9.70;99.90
18173;DHT22;9211;48.818;9.312;2023-04-03T14:09:56;9.60;99.90
18173;DHT22;9211;48.818;9.312;2023-04-03T14:12:26;9.70;99.90
18173;DHT22;9211;48.818;9.312;2023-04-03T14:14:54;9.80;99.90
18173;DHT22;9211;48.818;9.312;2023-04-03T14:17:24;9.80;99.90
18173;DHT22;9211;48.818;9.312;2023-04-03T14:19:53;9.80;99.50
18173;DHT22;9211;48.818;9.312;2023-04-03T14:22:23;10.00;99.90
18173;DHT22;9211;48.818;9.312;2023-04-03T14:24:51;10.10;99.90
18173;DHT22;9211;48.818;9.312;2023-04-03T14:27:21;10.20;99.90
18173;DHT22;9211;48.818;9.312;2023-04-03T14:29:51;10.20;99.90
18173;DHT22;9211;48.818;9.312;2023-04-03T14:32:20;10.20;99.90
18173;DHT22;9211;48.818;9.312;2023-04-03T14:34:48;10.10;99.50
18173;DHT22;9211;48.818;9.312;2023-04-03T14:37:17;10.00;99.20
18173;DHT22;9211;48.818;9.312;2023-04-03T14:39:45;9.90;99.10
18173;DHT22;9211;48.818;9.312;2023-04-03T14:42:14;9.90;99.30
18173;DHT22;9211;48.818;9.312;2023-04-03T14:44:42;9.90;98.90
18173;DHT22;9211;48.818;9.312;2023-04-03T14:47:11;9.90;99.40
18173;DHT22;9211;48.818;9.312;2023-04-03T14:49:39;10.10;99.40
18173;DHT22;9211;48.818;9.312;2023-04-03T14:52:09;10.20;99.30
18173;DHT22;9211;48.818;9.312;2023-04-03T14:54:43;10.20;99.00
18173;DHT22;9211;48.818;9.312;2023-04-03T14:57:13;10.30;97.70
18173;DHT22;9211;48.818;9.312;2023-04-03T14:59:42;10.20;97.30
18173;DHT22;9211;48.818;9.312;2023-04-03T15:02:26;10.30;97.80
18173;DHT22;9211;48.818;9.312;2023-04-03T15:04:53;10.30;97.90
18173;DHT22;9211;48.818;9.312;2023-04-03T15:07:21;10.30;97.30
18173;DHT22;9211;48.818;9.312;2023-04-03T15:09:48;10.40;96.70
18173;DHT22;9211;48.818;9.312;2023-04-03T15:12:15;10.30;96.50
18173;DHT22;9211;48.818;9.312;2023-04-03T15:14:44;10.20;95.90
18173;DHT22;9211;48.818;9.312;2023-04-03T15:17:15;10.10;96.60
18173;DHT22;9211;48.818;9.312;2023-04-03T15:19:43;10.10;97.00
18173;DHT22;9211;48.818;9.312;2023-04-03T15:22:14;10.10;96.60
18173;DHT22;9211;48.818;9.312;2023-04-03T15:24:41;10.00;96.50
18173;DHT22;9211;48.818;9.312;2023-04-03T15:27:08;10.10;96.80
18173;DHT22;9211;48.818;9.312;2023-04-03T15:29:36;10.00;96.40
18173;DHT22;9211;48.818;9.312;2023-04-03T15:32:04;10.10;96.20
18173;DHT22;9211;48.818;9.312;2023-04-03T15:34:31;10.10;96.70
18173;DHT22;9211;48.818;9.312;2023-04-03T15:36:58;10.10;96.30
18173;DHT22;9211;48.818;9.312;2023-04-03T15:39:26;10.10;96.50
18173;DHT22;9211;48.818;9.312;2023-04-03T15:41:53;10.20;96.40
18173;DHT22;9211;48.818;9.312;2023-04-03T15:44:20;10.30;96.20
18173;DHT22;9211;48.818;9.312;2023-04-03T15:46:48;10.50;96.50
18173;DHT22;9211;48.818;9.312;2023-04-03T15:49:19;10.80;96.30
18173;DHT22;9211;48.818;9.312;2023-04-03T15:51:46;10.90;96.50
18173;DHT22;9211;48.818;9.312;2023-04-03T15:54:12;11.00;95.20
18173;DHT22;9211;48.818;9.312;2023-04-03T15:56:40;11.10;94.70
18173;DHT22;9211;48.818;9.312;2023-04-03T15:59:07;11.20;94.10
18173;DHT22;9211;48.818;9.312;2023-04-03T16:01:34;11.20;93.30
18173;DHT22;9211;48.818;9.312;2023-04-03T16:04:01;11.00;93.40
18173;DHT22;9211;48.818;9.312;2023-04-03T16:06:29;10.80;93.00
18173;DHT22;9211;48.818;9.312;2023-04-03T16:08:59;10.50;93.30
18173;DHT22;9211;48.818;9.312;2023-04-03T16:11:27;10.30;93.40
18173;DHT22;9211;48.818;9.312;2023-04-03T16:13:54;10.40;93.40
18173;DHT22;9211;48.818;9.312;2023-04-03T16:16:21;10.50;93.20
18173;DHT22;9211;48.818;9.312;2023-04-03T16:18:49;10.70;93.30
18173;DHT22;9211;48.818;9.312;2023-04-03T16:21:16;11.00;92.90
18173;DHT22;9211;48.818;9.312;2023-04-03T16:23:45;11.10;92.60
18173;DHT22;9211;48.818;9.312;2023-04-03T16:26:12;11.30;92.40
18173;DHT22;9211;48.818;9.312;2023-04-03T16:28:39;11.20;91.50
18173;DHT22;9211;48.818;9.312;2023-04-03T16:31:07;11.00;91.90
18173;DHT22;9211;48.818;9.312;2023-04-03T16:33:35;11.00;91.90
18173;DHT22;9211;48.818;9.312;2023-04-03T16:36:02;11.00;92.70